Terminal Aerodrome Forecast
Issued by NWS King Salmon, AK

Home | Current Version | Previous Version | Text Only | Print | Product List | Glossary On
Versions: 1 2 3 4 5 6 7 8 9 10 11 12 13 14 15 16 17 18 19 20 21 22 23 24 25 26 27 28 29
000
FTAK31 PANC 021734
TAFAKN
TAF
PAKN 021734Z 0218/0318 15006KT P6SM BKN015
      TEMPO 0218/0222 BKN004 OVC015
     FM022200 21010KT P6SM -SHRA SCT025 BKN050
     FM030600 VRB05KT P6SM VCSH SCT050 BKN080
     FM031200 VRB03KT 2SM BR OVC010=

USA.gov is the U.S. government's official web portal to all federal, state and local government web resources and services.